createdAt,value
2016-08-20T00:00:13.879Z,0
2016-08-20T00:01:13.865Z,0
2016-08-20T00:02:13.872Z,0
2016-08-20T00:03:13.877Z,0
2016-08-20T00:04:13.883Z,0
2016-08-20T00:05:13.851Z,0
2016-08-20T00:06:13.889Z,0
2016-08-20T00:07:13.888Z,0
2016-08-20T00:08:13.883Z,0
2016-08-20T00:09:13.905Z,0
2016-08-20T00:10:13.863Z,0
2016-08-20T00:11:13.882Z,0
2016-08-20T00:12:13.962Z,0
2016-08-20T00:13:13.874Z,0
2016-08-20T00:14:13.898Z,0
2016-08-20T00:15:13.873Z,0
2016-08-20T00:16:13.894Z,0
2016-08-20T00:17:13.881Z,0
2016-08-20T00:18:13.900Z,0
2016-08-20T00:19:13.881Z,0
2016-08-20T00:20:13.929Z,0
2016-08-20T00:21:13.891Z,0
2016-08-20T00:22:13.899Z,0
2016-08-20T00:23:13.886Z,0
2016-08-20T00:24:13.878Z,0
2016-08-20T00:25:13.893Z,0
2016-08-20T00:26:13.912Z,0
2016-08-20T00:27:13.936Z,0
2016-08-20T00:28:13.901Z,0
2016-08-20T00:29:13.909Z,0
2016-08-20T00:30:13.914Z,0
2016-08-20T00:31:13.900Z,0
2016-08-20T00:32:13.912Z,0
2016-08-20T00:33:13.907Z,0
2016-08-20T00:34:13.918Z,0
2016-08-20T00:35:13.928Z,0
2016-08-20T00:36:13.926Z,0
2016-08-20T00:37:13.914Z,0
2016-08-20T00:38:13.934Z,0
2016-08-20T00:39:13.955Z,0
2016-08-20T00:40:13.906Z,0
2016-08-20T00:41:13.919Z,0
2016-08-20T00:42:13.999Z,0
2016-08-20T00:43:13.926Z,0
2016-08-20T00:44:13.975Z,0
2016-08-20T00:45:13.946Z,0
2016-08-20T00:46:13.921Z,0
2016-08-20T00:47:13.912Z,0
2016-08-20T00:48:13.902Z,0
2016-08-20T00:49:13.895Z,0
2016-08-20T00:50:13.902Z,0
2016-08-20T00:51:13.914Z,0
2016-08-20T00:52:13.903Z,0
2016-08-20T00:53:13.912Z,0
2016-08-20T00:54:13.926Z,0
2016-08-20T00:55:13.920Z,0
2016-08-20T00:56:13.915Z,0
2016-08-20T00:57:14.604Z,0
2016-08-20T00:58:13.972Z,0
2016-08-20T00:59:13.908Z,0
2016-08-20T01:00:13.916Z,0
2016-08-20T01:01:13.918Z,0
2016-08-20T01:02:13.975Z,0
2016-08-20T01:03:13.901Z,0
2016-08-20T01:04:13.939Z,0
2016-08-20T01:05:13.954Z,0
2016-08-20T01:06:13.914Z,0
2016-08-20T01:07:13.942Z,0
2016-08-20T01:08:13.935Z,0
2016-08-20T01:09:13.944Z,0
2016-08-20T01:10:13.948Z,0
2016-08-20T01:11:13.912Z,0
2016-08-20T01:12:13.991Z,0
2016-08-20T01:13:13.938Z,0
2016-08-20T01:14:13.960Z,0
2016-08-20T01:15:13.926Z,0
2016-08-20T01:16:13.916Z,0
2016-08-20T01:17:13.975Z,0
2016-08-20T01:18:13.943Z,0
2016-08-20T01:19:13.948Z,0
2016-08-20T01:20:13.930Z,0
2016-08-20T01:21:13.962Z,0
2016-08-20T01:22:13.966Z,0
2016-08-20T01:23:13.957Z,0
2016-08-20T01:24:13.962Z,0
2016-08-20T01:25:13.978Z,0
2016-08-20T01:26:13.962Z,0
2016-08-20T01:27:13.993Z,0
2016-08-20T01:28:13.959Z,0
2016-08-20T01:29:13.994Z,0
2016-08-20T01:30:13.958Z,0
2016-08-20T01:31:13.963Z,0
2016-08-20T01:32:13.957Z,0
2016-08-20T01:33:13.950Z,0
2016-08-20T01:34:13.944Z,0
2016-08-20T01:35:13.951Z,0
2016-08-20T01:36:13.943Z,0
2016-08-20T01:37:14.007Z,0
2016-08-20T01:38:13.959Z,0
2016-08-20T01:39:13.946Z,0
2016-08-20T01:40:13.986Z,0
2016-08-20T01:41:13.957Z,0
2016-08-20T01:42:13.997Z,0
2016-08-20T01:43:13.985Z,0
2016-08-20T01:44:13.976Z,0
2016-08-20T01:45:13.996Z,0
2016-08-20T01:46:13.947Z,0
2016-08-20T01:47:13.977Z,0
2016-08-20T01:48:13.971Z,0
2016-08-20T01:49:13.994Z,0
2016-08-20T01:50:13.967Z,0
2016-08-20T01:51:13.947Z,0
2016-08-20T01:52:13.965Z,0
2016-08-20T01:53:14.019Z,0
2016-08-20T01:54:14.006Z,0
2016-08-20T01:55:14.007Z,0
2016-08-20T01:56:13.971Z,0
2016-08-20T01:57:13.995Z,0
2016-08-20T01:58:14.021Z,0
2016-08-20T01:59:13.980Z,0
2016-08-20T02:00:13.985Z,0
2016-08-20T02:01:13.992Z,0
2016-08-20T02:02:14.019Z,0
2016-08-20T02:04:00.258Z,0
2016-08-20T02:04:21.079Z,0
2016-08-20T02:06:07.470Z,0
2016-08-20T02:06:38.954Z,0
2016-08-20T02:07:41.170Z,0
2016-08-20T02:09:27.513Z,0
2016-08-20T02:10:50.596Z,0
2016-08-20T02:12:14.459Z,0
2016-08-20T02:13:39.757Z,0
2016-08-20T02:15:02.778Z,0
2016-08-20T02:16:23.434Z,0
2016-08-20T02:17:44.891Z,0
2016-08-20T02:19:06.481Z,0
2016-08-20T02:20:28.788Z,0
2016-08-20T02:21:49.804Z,0
2016-08-20T02:22:56.296Z,0
2016-08-20T02:24:01.891Z,0
2016-08-20T02:25:16.144Z,0
2016-08-20T02:26:33.749Z,0
2016-08-20T02:27:49.388Z,0
2016-08-20T02:28:10.063Z,0
2016-08-20T02:29:10.079Z,0
2016-08-20T02:30:10.095Z,0
2016-08-20T02:31:10.173Z,0
2016-08-20T02:32:10.049Z,0
2016-08-20T02:33:10.065Z,0
2016-08-20T02:34:10.077Z,0
2016-08-20T02:35:10.076Z,0
2016-08-20T02:36:10.129Z,0
2016-08-20T02:37:10.080Z,0
2016-08-20T02:38:10.115Z,0
2016-08-20T02:39:10.080Z,0
2016-08-20T02:40:10.080Z,0
2016-08-20T02:41:10.077Z,0
2016-08-20T02:42:10.770Z,0
2016-08-20T02:43:10.140Z,0
2016-08-20T02:44:10.093Z,0
2016-08-20T02:45:10.095Z,0
2016-08-20T02:46:10.081Z,0
2016-08-20T02:47:10.124Z,0
2016-08-20T02:48:10.103Z,0
2016-08-20T02:49:10.097Z,0
2016-08-20T02:50:10.111Z,0
2016-08-20T02:51:10.097Z,0
2016-08-20T02:52:10.098Z,0
2016-08-20T02:53:10.119Z,0
2016-08-20T02:54:10.113Z,0
2016-08-20T02:55:10.100Z,0
2016-08-20T02:56:10.086Z,0
2016-08-20T02:57:10.096Z,0
2016-08-20T02:58:10.081Z,0
2016-08-20T02:59:10.096Z,0
2016-08-20T03:00:10.088Z,0
2016-08-20T03:01:11.035Z,0
2016-08-20T03:02:10.108Z,0
2016-08-20T03:03:10.125Z,0
2016-08-20T03:04:11.833Z,0
2016-08-20T03:05:10.104Z,0
2016-08-20T03:06:10.111Z,0
2016-08-20T03:07:10.112Z,0
2016-08-20T03:08:10.125Z,0
2016-08-20T03:09:10.117Z,0
2016-08-20T03:10:10.108Z,0
2016-08-20T03:11:10.115Z,0
2016-08-20T03:12:10.110Z,0
2016-08-20T03:13:10.140Z,0
2016-08-20T03:14:10.129Z,0
2016-08-20T03:15:10.122Z,0
2016-08-20T03:16:10.114Z,0
2016-08-20T03:17:10.098Z,0
2016-08-20T03:18:10.128Z,0
2016-08-20T03:19:10.125Z,0
2016-08-20T03:20:10.146Z,0
2016-08-20T03:21:10.162Z,0
2016-08-20T03:22:10.145Z,0
2016-08-20T03:23:10.150Z,0
2016-08-20T03:24:10.103Z,0
2016-08-20T03:25:10.128Z,0
2016-08-20T03:26:10.114Z,0
2016-08-20T03:27:10.125Z,0
2016-08-20T03:28:10.132Z,0
2016-08-20T03:29:10.113Z,0
2016-08-20T03:30:10.135Z,0
2016-08-20T03:31:10.124Z,0
2016-08-20T03:32:10.132Z,0
2016-08-20T03:33:10.140Z,0
2016-08-20T03:34:10.109Z,0
2016-08-20T03:35:10.126Z,0
2016-08-20T03:36:10.127Z,0
2016-08-20T03:37:10.151Z,0
2016-08-20T03:38:10.130Z,0
2016-08-20T03:39:10.127Z,0
2016-08-20T03:40:10.139Z,0
2016-08-20T03:41:10.128Z,0
2016-08-20T03:42:10.125Z,0
2016-08-20T03:43:10.133Z,0
2016-08-20T03:44:10.119Z,0
2016-08-20T03:45:10.140Z,0
2016-08-20T03:46:10.151Z,0
2016-08-20T03:47:10.130Z,0
2016-08-20T03:48:10.158Z,0
2016-08-20T03:49:10.137Z,0
2016-08-20T03:50:10.162Z,0
2016-08-20T03:51:10.178Z,0
2016-08-20T03:52:10.183Z,0
2016-08-20T03:53:10.193Z,0
2016-08-20T03:54:10.169Z,0
2016-08-20T03:55:10.190Z,0
2016-08-20T03:56:10.187Z,0
2016-08-20T03:57:10.191Z,4
2016-08-20T03:58:10.189Z,4
2016-08-20T03:59:10.157Z,0
2016-08-20T04:00:10.158Z,4
2016-08-20T04:01:10.189Z,4
2016-08-20T04:02:10.156Z,4
2016-08-20T04:03:10.162Z,8
2016-08-20T04:04:10.163Z,4
2016-08-20T04:05:10.174Z,8
2016-08-20T04:06:10.194Z,12
2016-08-20T04:07:10.159Z,12
2016-08-20T04:08:10.164Z,12
2016-08-20T04:09:10.173Z,16
2016-08-20T04:10:10.160Z,16
2016-08-20T04:11:10.176Z,16
2016-08-20T04:12:10.179Z,12
2016-08-20T04:13:10.212Z,16
2016-08-20T04:14:10.179Z,20
2016-08-20T04:15:10.212Z,20
2016-08-20T04:16:10.144Z,24
2016-08-20T04:17:10.164Z,24
2016-08-20T04:18:10.192Z,28
2016-08-20T04:19:10.151Z,32
2016-08-20T04:20:10.207Z,36
2016-08-20T04:21:10.192Z,36
2016-08-20T04:22:10.195Z,44
2016-08-20T04:23:10.190Z,64
2016-08-20T04:24:10.212Z,88
2016-08-20T04:25:10.172Z,116
2016-08-20T04:26:10.160Z,164
2016-08-20T04:27:10.209Z,216
2016-08-20T04:28:10.192Z,256
2016-08-20T04:29:10.218Z,284
2016-08-20T04:30:10.194Z,292
2016-08-20T04:31:10.211Z,296
2016-08-20T04:32:10.175Z,304
2016-08-20T04:33:10.225Z,320
2016-08-20T04:34:10.188Z,344
2016-08-20T04:35:10.230Z,384
2016-08-20T04:36:10.220Z,460
2016-08-20T04:37:10.190Z,544
2016-08-20T04:38:10.166Z,640
2016-08-20T04:39:10.190Z,728
2016-08-20T04:40:10.198Z,784
2016-08-20T04:41:10.182Z,832
2016-08-20T04:42:10.196Z,844
2016-08-20T04:43:10.226Z,856
2016-08-20T04:44:10.205Z,828
2016-08-20T04:45:10.203Z,768
2016-08-20T04:46:10.207Z,808
2016-08-20T04:47:10.190Z,924
2016-08-20T04:48:10.207Z,1032
2016-08-20T04:49:10.212Z,1152
2016-08-20T04:50:10.198Z,1272
2016-08-20T04:51:10.226Z,1396
2016-08-20T04:52:10.207Z,1496
2016-08-20T04:53:10.210Z,1584
2016-08-20T04:54:10.210Z,1832
2016-08-20T04:55:10.197Z,2096
2016-08-20T04:56:10.224Z,2316
2016-08-20T04:57:10.229Z,2284
2016-08-20T04:58:10.225Z,2196
2016-08-20T04:59:10.209Z,2528
2016-08-20T05:00:10.237Z,2508
2016-08-20T05:01:10.251Z,1924
2016-08-20T05:02:10.229Z,1700
2016-08-20T05:03:10.226Z,1728
2016-08-20T05:04:10.222Z,1868
2016-08-20T05:05:10.229Z,2012
2016-08-20T05:06:10.207Z,2144
2016-08-20T05:07:10.228Z,2276
2016-08-20T05:08:10.207Z,2256
2016-08-20T05:09:10.192Z,2144
2016-08-20T05:10:10.225Z,2232
2016-08-20T05:11:10.243Z,2000
2016-08-20T05:12:10.210Z,1896
2016-08-20T05:13:10.271Z,2208
2016-08-20T05:14:10.228Z,2468
2016-08-20T05:15:10.335Z,2500
2016-08-20T05:16:10.225Z,2432
2016-08-20T05:17:10.236Z,1976
2016-08-20T05:18:10.241Z,1840
2016-08-20T05:19:10.552Z,2232
2016-08-20T05:20:10.201Z,2844
2016-08-20T05:21:10.241Z,3036
2016-08-20T05:22:10.266Z,2716
2016-08-20T05:23:10.273Z,2380
2016-08-20T05:24:10.266Z,2468
2016-08-20T05:25:10.912Z,2620
2016-08-20T05:26:10.239Z,2884
2016-08-20T05:27:10.237Z,3156
2016-08-20T05:28:10.809Z,3540
2016-08-20T05:29:10.252Z,3776
2016-08-20T05:30:10.245Z,3944
2016-08-20T05:31:10.236Z,4008
2016-08-20T05:32:10.244Z,4304
2016-08-20T05:33:10.250Z,4428
2016-08-20T05:34:10.241Z,4880
2016-08-20T05:35:10.254Z,5324
2016-08-20T05:36:10.254Z,4996
2016-08-20T05:37:10.286Z,4828
2016-08-20T05:38:10.269Z,4972
2016-08-20T05:39:10.266Z,4856
2016-08-20T05:40:10.252Z,5044
2016-08-20T05:41:10.239Z,5432
2016-08-20T05:42:10.224Z,5732
2016-08-20T05:43:10.238Z,5504
2016-08-20T05:44:10.228Z,5188
2016-08-20T05:45:10.238Z,5144
2016-08-20T05:46:10.253Z,5372
2016-08-20T05:47:10.318Z,5320
2016-08-20T05:48:10.270Z,5508
2016-08-20T05:49:10.297Z,5872
2016-08-20T05:50:10.287Z,6348
2016-08-20T05:51:10.263Z,6860
2016-08-20T05:52:10.243Z,7332
2016-08-20T05:53:10.270Z,7344
2016-08-20T05:54:10.263Z,7540
2016-08-20T05:55:10.256Z,7064
2016-08-20T05:56:10.261Z,6716
2016-08-20T05:57:10.270Z,6328
2016-08-20T05:58:10.256Z,6348
2016-08-20T05:59:10.256Z,6744
2016-08-20T06:00:10.918Z,7352
2016-08-20T06:01:10.274Z,7664
2016-08-20T06:02:10.363Z,7132
2016-08-20T06:03:10.260Z,6816
2016-08-20T06:04:10.255Z,6232
2016-08-20T06:05:10.288Z,5912
2016-08-20T06:06:10.274Z,6584
2016-08-20T06:07:10.539Z,6592
2016-08-20T06:08:10.427Z,6812
2016-08-20T06:09:10.323Z,7356
2016-08-20T06:10:10.286Z,7512
2016-08-20T06:11:10.360Z,7996
2016-08-20T06:12:10.480Z,8316
2016-08-20T06:13:10.512Z,8348
2016-08-20T06:14:10.253Z,9040
2016-08-20T06:15:10.375Z,8060
2016-08-20T06:16:10.381Z,9012
2016-08-20T06:17:10.287Z,8028
2016-08-20T06:18:10.318Z,7080
2016-08-20T06:19:10.399Z,7232
2016-08-20T06:20:10.303Z,7016
2016-08-20T06:21:10.378Z,7080
2016-08-20T06:22:10.345Z,7820
2016-08-20T06:23:10.277Z,8536
2016-08-20T06:24:10.287Z,7308
2016-08-20T06:25:10.292Z,6828
2016-08-20T06:26:10.297Z,6648
2016-08-20T06:27:10.273Z,6532
2016-08-20T06:28:10.314Z,6660
2016-08-20T06:29:10.301Z,7648
2016-08-20T06:30:10.270Z,8000
2016-08-20T06:31:10.289Z,7732
2016-08-20T06:32:10.402Z,8268
2016-08-20T06:33:10.272Z,7180
2016-08-20T06:34:10.345Z,6800
2016-08-20T06:35:10.272Z,7880
2016-08-20T06:36:10.319Z,8120
2016-08-20T06:37:10.272Z,8556
2016-08-20T06:38:10.304Z,8188
2016-08-20T06:39:10.311Z,8504
2016-08-20T06:40:10.495Z,9072
2016-08-20T06:41:10.386Z,8988
2016-08-20T06:42:10.387Z,9692
2016-08-20T06:43:10.394Z,9756
2016-08-20T06:44:10.365Z,9148
2016-08-20T06:45:10.362Z,10328
2016-08-20T06:46:10.337Z,8984
2016-08-20T06:47:10.909Z,7400
2016-08-20T06:48:10.452Z,6608
2016-08-20T06:49:10.424Z,5456
2016-08-20T06:50:10.349Z,4792
2016-08-20T06:51:10.496Z,5076
2016-08-20T06:52:10.395Z,5024
2016-08-20T06:53:10.318Z,5548
2016-08-20T06:54:10.377Z,6012
2016-08-20T06:55:10.344Z,5776
2016-08-20T06:56:10.365Z,5184
2016-08-20T06:57:10.353Z,4552
2016-08-20T06:58:10.336Z,4752
2016-08-20T06:59:10.319Z,5024
2016-08-20T07:00:10.365Z,5080
2016-08-20T07:01:10.319Z,5284
2016-08-20T07:02:10.439Z,6120
2016-08-20T07:03:10.597Z,7216
2016-08-20T07:04:10.333Z,8868
2016-08-20T07:05:10.324Z,8008
2016-08-20T07:06:10.374Z,8176
2016-08-20T07:07:10.337Z,7952
2016-08-20T07:08:10.330Z,7268
2016-08-20T07:09:10.395Z,7916
2016-08-20T07:10:10.423Z,7464
2016-08-20T07:11:10.470Z,7372
2016-08-20T07:12:10.348Z,6884
2016-08-20T07:13:10.366Z,6876
2016-08-20T07:14:10.440Z,7792
2016-08-20T07:15:10.351Z,8808
2016-08-20T07:16:10.432Z,9272
2016-08-20T07:17:10.332Z,9156
2016-08-20T07:18:10.367Z,9096
2016-08-20T07:19:10.447Z,9664
2016-08-20T07:20:10.363Z,10564
2016-08-20T07:21:10.413Z,11104
2016-08-20T07:22:10.347Z,10968
2016-08-20T07:23:10.791Z,10656
2016-08-20T07:24:10.415Z,10272
2016-08-20T07:25:10.381Z,8508
2016-08-20T07:26:10.422Z,8272
2016-08-20T07:27:10.427Z,8176
2016-08-20T07:28:10.454Z,8204
2016-08-20T07:29:10.394Z,8348
2016-08-20T07:30:10.496Z,8120
2016-08-20T07:31:10.456Z,9056
2016-08-20T07:32:10.508Z,10708
2016-08-20T07:33:10.425Z,12264
2016-08-20T07:34:10.368Z,12176
2016-08-20T07:35:10.343Z,10992
2016-08-20T07:36:10.350Z,9728
2016-08-20T07:37:10.379Z,9740
2016-08-20T07:38:10.355Z,10080
2016-08-20T07:39:10.356Z,10428
2016-08-20T07:40:10.402Z,10420
2016-08-20T07:41:10.367Z,10684
2016-08-20T07:42:10.394Z,13620
2016-08-20T07:43:10.372Z,15188
2016-08-20T07:44:10.357Z,17004
2016-08-20T07:45:10.371Z,17784
2016-08-20T07:46:10.381Z,19328
2016-08-20T07:47:10.387Z,19776
2016-08-20T07:48:10.352Z,18496
2016-08-20T07:49:10.372Z,13716
2016-08-20T07:50:10.361Z,12120
2016-08-20T07:51:10.368Z,12888
2016-08-20T07:52:10.377Z,14344
2016-08-20T07:53:10.351Z,14624
2016-08-20T07:54:10.390Z,15308
2016-08-20T07:55:10.383Z,16084
2016-08-20T07:56:11.541Z,16932
2016-08-20T07:57:10.712Z,16636
2016-08-20T07:58:10.374Z,17448
2016-08-20T07:59:10.849Z,16100
2016-08-20T08:00:10.369Z,14324
2016-08-20T08:01:10.411Z,15028
2016-08-20T08:02:10.398Z,15760
2016-08-20T08:03:10.383Z,16368
2016-08-20T08:04:10.371Z,16236
2016-08-20T08:05:10.418Z,16072
2016-08-20T08:06:10.379Z,16036
2016-08-20T08:07:10.412Z,16904
2016-08-20T08:08:10.399Z,16032
2016-08-20T08:09:10.400Z,15900
2016-08-20T08:10:10.394Z,16136
2016-08-20T08:11:10.376Z,15916
2016-08-20T08:12:10.428Z,15116
2016-08-20T08:13:10.479Z,14964
2016-08-20T08:14:10.449Z,14756
2016-08-20T08:15:10.388Z,16188
2016-08-20T08:16:10.417Z,17464
2016-08-20T08:17:10.426Z,17392
2016-08-20T08:18:10.417Z,16640
2016-08-20T08:19:10.414Z,13708
2016-08-20T08:20:10.396Z,13448
2016-08-20T08:21:10.421Z,14792
2016-08-20T08:22:10.427Z,14420
2016-08-20T08:23:10.408Z,15576
2016-08-20T08:24:10.444Z,15404
2016-08-20T08:25:10.416Z,15648
2016-08-20T08:26:10.413Z,15664
2016-08-20T08:27:10.464Z,15784
2016-08-20T08:28:10.451Z,16236
2016-08-20T08:29:10.444Z,16248
2016-08-20T08:30:10.437Z,17544
2016-08-20T08:31:10.426Z,19296
2016-08-20T08:32:10.448Z,17636
2016-08-20T08:33:10.405Z,17136
2016-08-20T08:34:10.417Z,16740
2016-08-20T08:35:10.427Z,16640
2016-08-20T08:36:10.436Z,16900
2016-08-20T08:37:10.430Z,17288
2016-08-20T08:38:10.431Z,16972
2016-08-20T08:39:10.430Z,18848
2016-08-20T08:40:10.437Z,18016
2016-08-20T08:41:10.459Z,16152
2016-08-20T08:42:10.449Z,14976
2016-08-20T08:43:10.431Z,15020
2016-08-20T08:44:10.416Z,15384
2016-08-20T08:45:10.508Z,14688
2016-08-20T08:46:10.452Z,14248
2016-08-20T08:47:10.433Z,13136
2016-08-20T08:48:10.492Z,10988
2016-08-20T08:49:10.439Z,9472
2016-08-20T08:50:10.451Z,11856
2016-08-20T08:51:10.459Z,14616
2016-08-20T08:52:10.473Z,16244
2016-08-20T08:53:10.475Z,15780
2016-08-20T08:54:10.473Z,15476
2016-08-20T08:55:10.448Z,16312
2016-08-20T08:56:10.458Z,16272
2016-08-20T08:57:10.431Z,14288
2016-08-20T08:58:10.456Z,11796
2016-08-20T08:59:10.503Z,10684
2016-08-20T09:00:10.468Z,10064
2016-08-20T09:01:10.435Z,9724
2016-08-20T09:02:10.461Z,10720
2016-08-20T09:03:10.492Z,11868
2016-08-20T09:04:10.465Z,10968
2016-08-20T09:05:10.446Z,11524
2016-08-20T09:06:10.454Z,12776
2016-08-20T09:07:10.462Z,14644
2016-08-20T09:08:10.506Z,14432
2016-08-20T09:09:10.447Z,13608
2016-08-20T09:10:10.559Z,13600
2016-08-20T09:11:10.465Z,13624
2016-08-20T09:12:10.510Z,13264
2016-08-20T09:13:10.484Z,12924
2016-08-20T09:14:10.493Z,12368
2016-08-20T09:15:10.472Z,12596
2016-08-20T09:16:10.523Z,13688
2016-08-20T09:17:10.505Z,14972
2016-08-20T09:18:10.536Z,14336
2016-08-20T09:19:10.478Z,13692
2016-08-20T09:20:10.607Z,13344
2016-08-20T09:21:10.600Z,13836
2016-08-20T09:22:10.476Z,15444
2016-08-20T09:23:10.517Z,15740
2016-08-20T09:24:10.520Z,14784
2016-08-20T09:25:10.544Z,14428
2016-08-20T09:26:10.550Z,14212
2016-08-20T09:27:10.495Z,13964
2016-08-20T09:28:10.490Z,14164
2016-08-20T09:29:10.553Z,12992
2016-08-20T09:30:10.489Z,12656
2016-08-20T09:31:10.492Z,13080
2016-08-20T09:32:10.555Z,13064
2016-08-20T09:33:11.168Z,13288
2016-08-20T09:34:10.483Z,12728
2016-08-20T09:35:10.526Z,12920
2016-08-20T09:36:10.507Z,13388
2016-08-20T09:37:10.561Z,12408
2016-08-20T09:38:10.497Z,13224
2016-08-20T09:39:10.515Z,15880
2016-08-20T09:40:10.857Z,17180
2016-08-20T09:41:10.484Z,17400
2016-08-20T09:42:10.475Z,16588
2016-08-20T09:43:10.495Z,16428
2016-08-20T09:44:10.521Z,18368
2016-08-20T09:45:10.583Z,18848
2016-08-20T09:46:10.505Z,15524
2016-08-20T09:47:10.507Z,15132
2016-08-20T09:48:10.544Z,15960
2016-08-20T09:49:10.522Z,15424
2016-08-20T09:50:10.501Z,14020
2016-08-20T09:51:10.555Z,11776
2016-08-20T09:52:10.543Z,10904
2016-08-20T09:53:10.512Z,11228
2016-08-20T09:54:10.529Z,10580
2016-08-20T09:55:10.541Z,10388
2016-08-20T09:56:10.546Z,10452
2016-08-20T09:57:10.538Z,10988
2016-08-20T09:58:10.544Z,12372
2016-08-20T09:59:10.506Z,13208
2016-08-20T10:00:10.559Z,17464
2016-08-20T10:01:10.509Z,17700
2016-08-20T10:02:10.526Z,13724
2016-08-20T10:03:10.506Z,12104
2016-08-20T10:04:10.500Z,13236
2016-08-20T10:05:10.500Z,14368
2016-08-20T10:06:10.516Z,13416
2016-08-20T10:07:10.568Z,10744
2016-08-20T10:08:10.595Z,9808
2016-08-20T10:09:10.556Z,9552
2016-08-20T10:10:10.644Z,9268
2016-08-20T10:11:10.564Z,8720
2016-08-20T10:12:10.586Z,8620
2016-08-20T10:13:10.578Z,9192
2016-08-20T10:14:10.545Z,9248
2016-08-20T10:15:10.545Z,10936
2016-08-20T10:16:10.569Z,11908
2016-08-20T10:17:10.533Z,12908
2016-08-20T10:18:10.525Z,12308
2016-08-20T10:19:10.514Z,12388
2016-08-20T10:20:10.553Z,10588
2016-08-20T10:21:10.543Z,10520
2016-08-20T10:22:10.540Z,10600
2016-08-20T10:23:10.559Z,12700
2016-08-20T10:24:10.537Z,11512
2016-08-20T10:25:10.559Z,11708
2016-08-20T10:26:10.563Z,11436
2016-08-20T10:27:10.543Z,10328
2016-08-20T10:28:10.556Z,11104
2016-08-20T10:29:10.637Z,11236
2016-08-20T10:30:10.538Z,12584
2016-08-20T10:31:10.527Z,11496
2016-08-20T10:32:10.538Z,11416
2016-08-20T10:33:10.530Z,11480
2016-08-20T10:34:10.561Z,12020
2016-08-20T10:35:10.589Z,12752
2016-08-20T10:36:10.547Z,14664
2016-08-20T10:37:10.614Z,14500
2016-08-20T10:38:10.575Z,13708
2016-08-20T10:39:10.593Z,14768
2016-08-20T10:40:10.556Z,14296
2016-08-20T10:41:11.571Z,12356
2016-08-20T10:42:10.552Z,12204
2016-08-20T10:43:10.572Z,11452
2016-08-20T10:44:10.571Z,12696
2016-08-20T10:45:10.540Z,16112
2016-08-20T10:46:10.566Z,16668
2016-08-20T10:47:10.614Z,14304
2016-08-20T10:48:10.549Z,11852
2016-08-20T10:49:10.751Z,10140
2016-08-20T10:50:10.600Z,9724
2016-08-20T10:51:10.576Z,11820
2016-08-20T10:52:10.573Z,11672
2016-08-20T10:53:10.584Z,12320
2016-08-20T10:54:10.575Z,10664
2016-08-20T10:55:10.589Z,9472
2016-08-20T10:56:11.150Z,11892
2016-08-20T10:57:10.618Z,13732
2016-08-20T10:58:10.696Z,13044
2016-08-20T10:59:10.613Z,11352
2016-08-20T11:00:10.799Z,11888
2016-08-20T11:01:10.596Z,11608
2016-08-20T11:02:10.590Z,12000
2016-08-20T11:03:10.592Z,13196
2016-08-20T11:04:10.568Z,13496
2016-08-20T11:05:10.607Z,12328
2016-08-20T11:06:10.616Z,12060
2016-08-20T11:07:10.577Z,11480
2016-08-20T11:08:10.631Z,10892
2016-08-20T11:09:10.635Z,11480
2016-08-20T11:10:11.350Z,11640
2016-08-20T11:11:10.595Z,12452
2016-08-20T11:12:10.593Z,12232
2016-08-20T11:13:10.701Z,11992
2016-08-20T11:14:10.603Z,11596
2016-08-20T11:15:10.634Z,11408
2016-08-20T11:16:10.633Z,11640
2016-08-20T11:17:10.633Z,12504
2016-08-20T11:18:10.605Z,12504
2016-08-20T11:19:10.635Z,12488
2016-08-20T11:20:10.643Z,12616
2016-08-20T11:21:10.605Z,11432
2016-08-20T11:22:10.626Z,12524
2016-08-20T11:23:10.609Z,14776
2016-08-20T11:24:10.622Z,16360
2016-08-20T11:25:10.592Z,16792
2016-08-20T11:26:10.597Z,17504
2016-08-20T11:27:10.635Z,16024
2016-08-20T11:28:10.685Z,13380
2016-08-20T11:29:10.606Z,13108
2016-08-20T11:30:10.598Z,14844
2016-08-20T11:31:10.619Z,15956
2016-08-20T11:32:10.668Z,17088
2016-08-20T11:33:10.623Z,17472
2016-08-20T11:34:10.666Z,17424
2016-08-20T11:35:10.606Z,17316
2016-08-20T11:36:10.627Z,17064
2016-08-20T11:37:10.646Z,17212
2016-08-20T11:38:10.622Z,17980
2016-08-20T11:39:10.649Z,18688
2016-08-20T11:40:10.710Z,17728
2016-08-20T11:41:10.622Z,17792
2016-08-20T11:42:10.634Z,17420
2016-08-20T11:43:10.709Z,17004
2016-08-20T11:44:10.665Z,16592
2016-08-20T11:45:10.637Z,16808
2016-08-20T11:46:10.671Z,17704
2016-08-20T11:47:10.653Z,19200
2016-08-20T11:48:10.628Z,20224
2016-08-20T11:49:10.635Z,19296
2016-08-20T11:50:10.657Z,16688
2016-08-20T11:51:10.634Z,15604
2016-08-20T11:52:10.683Z,15540
2016-08-20T11:53:10.656Z,16412
2016-08-20T11:54:10.660Z,17212
2016-08-20T11:55:10.676Z,17020
2016-08-20T11:56:10.663Z,16752
2016-08-20T11:57:10.662Z,16996
2016-08-20T11:58:10.696Z,16920
2016-08-20T11:59:10.682Z,18560
2016-08-20T12:00:10.652Z,20448
2016-08-20T12:01:10.891Z,21504
2016-08-20T12:02:10.672Z,20160
2016-08-20T12:03:10.652Z,19456
2016-08-20T12:04:10.660Z,18108
2016-08-20T12:05:10.672Z,17036
2016-08-20T12:06:10.699Z,16436
2016-08-20T12:07:10.682Z,15576
2016-08-20T12:08:10.665Z,14272
2016-08-20T12:09:10.651Z,14188
2016-08-20T12:10:10.641Z,16048
2016-08-20T12:11:10.683Z,17828
2016-08-20T12:12:10.637Z,16044
2016-08-20T12:13:10.715Z,15332
2016-08-20T12:14:10.695Z,16296
2016-08-20T12:15:10.659Z,17524
2016-08-20T12:16:10.704Z,17104
2016-08-20T12:17:10.682Z,15428
2016-08-20T12:18:10.703Z,14648
2016-08-20T12:19:10.683Z,14436
2016-08-20T12:20:10.713Z,14592
2016-08-20T12:21:10.728Z,14496
2016-08-20T12:22:10.670Z,13940
2016-08-20T12:23:10.659Z,13320
2016-08-20T12:24:10.684Z,12900
2016-08-20T12:25:10.749Z,11868
2016-08-20T12:26:10.659Z,10692
2016-08-20T12:27:10.690Z,8984
2016-08-20T12:28:10.682Z,6892
2016-08-20T12:29:10.719Z,6896
2016-08-20T12:30:10.655Z,7764
2016-08-20T12:31:10.686Z,8448
2016-08-20T12:32:10.669Z,8920
2016-08-20T12:33:10.684Z,8876
2016-08-20T12:34:10.685Z,9516
2016-08-20T12:35:10.712Z,10552
2016-08-20T12:36:10.675Z,11480
2016-08-20T12:37:10.730Z,12120
2016-08-20T12:38:10.746Z,12216
2016-08-20T12:39:10.730Z,11680
2016-08-20T12:40:10.750Z,11324
2016-08-20T12:41:10.685Z,10396
2016-08-20T12:42:10.722Z,9420
2016-08-20T12:43:10.730Z,9060
2016-08-20T12:44:10.718Z,9292
2016-08-20T12:45:10.752Z,9720
2016-08-20T12:46:10.758Z,9896
2016-08-20T12:47:10.698Z,10036
2016-08-20T12:48:10.705Z,9600
2016-08-20T12:49:10.727Z,9412
2016-08-20T12:50:10.724Z,9444
2016-08-20T12:51:10.700Z,9508
2016-08-20T12:52:10.727Z,9108
2016-08-20T12:53:10.723Z,8960
2016-08-20T12:54:10.726Z,8500
2016-08-20T12:55:10.746Z,8516
2016-08-20T12:56:10.767Z,9668
2016-08-20T12:57:10.746Z,11788
2016-08-20T12:58:10.734Z,13880
2016-08-20T12:59:10.741Z,14572
2016-08-20T13:00:10.760Z,15084
2016-08-20T13:01:10.756Z,15128
2016-08-20T13:02:10.738Z,14304
2016-08-20T13:03:10.769Z,14200
2016-08-20T13:04:10.705Z,14584
2016-08-20T13:05:10.798Z,15560
2016-08-20T13:06:10.701Z,17620
2016-08-20T13:07:11.549Z,18212
2016-08-20T13:08:10.822Z,17280
2016-08-20T13:09:10.747Z,14712
2016-08-20T13:10:10.699Z,12944
2016-08-20T13:11:10.743Z,12372
2016-08-20T13:12:10.740Z,13128
2016-08-20T13:13:10.752Z,15064
2016-08-20T13:14:10.820Z,17936
2016-08-20T13:15:10.782Z,21632
2016-08-20T13:16:10.760Z,22848
2016-08-20T13:17:10.705Z,21472
2016-08-20T13:18:10.822Z,20352
2016-08-20T13:19:10.719Z,21120
2016-08-20T13:20:10.752Z,21248
2016-08-20T13:21:10.730Z,19168
2016-08-20T13:22:10.731Z,16700
2016-08-20T13:23:10.751Z,17700
2016-08-20T13:24:10.777Z,17360
2016-08-20T13:25:10.735Z,16720
2016-08-20T13:26:10.714Z,15728
2016-08-20T13:27:10.749Z,13428
2016-08-20T13:28:10.723Z,11732
2016-08-20T13:29:10.869Z,11088
2016-08-20T13:30:10.750Z,12216
2016-08-20T13:31:10.732Z,13764
2016-08-20T13:32:10.799Z,12636
2016-08-20T13:33:10.777Z,10516
2016-08-20T13:34:10.747Z,9080
2016-08-20T13:35:10.741Z,9872
2016-08-20T13:36:10.749Z,11416
2016-08-20T13:37:10.752Z,11452
2016-08-20T13:38:10.733Z,10604